TimeCST,TemperatureF,Dew PointF,Humidity,Sea Level PressureIn,VisibilityMPH,Wind Direction,Wind SpeedMPH,Gust SpeedMPH,PrecipitationIn,Events,Conditions,WindDirDegrees,DateUTC
12:00 AM,6,4,88,29.77,0,Calm,Calm,,,,Unknown Precipitation,,2013-01-12 06:00:00
12:00 AM,6.8,5.0,92,29.77,0.5,North,29.9,36.8,N/A,Snow,Light Snow,10,2013-01-12 06:00:00
1:00 AM,5.0,1.4,85,29.78,0.5,North,28.8,35.7,N/A,Snow,Light Snow,10,2013-01-12 07:00:00
2:00 AM,3.2,-5.8,66,29.80,0.5,North,31.1,38.0,N/A,Snow,Light Snow,360,2013-01-12 08:00:00
3:00 AM,1.4,-4.0,78,29.82,0.5,North,25.3,36.8,N/A,Snow,Light Snow,360,2013-01-12 09:00:00
3:25 AM,1.4,-9999,N/A,-9999,0.8,North,23.0,33.4,N/A,Snow,Light Snow,360,2013-01-12 09:25:00
4:00 AM,1.4,-4.0,78,29.84,0.8,North,23.0,29.9,N/A,Snow,Light Snow,350,2013-01-12 10:00:00
5:00 AM,-2.2,-7.6,78,29.86,0.8,North,28.8,35.7,N/A,Snow,Light Snow,350,2013-01-12 11:00:00
6:00 AM,-1,-10,49,29.90,0,Calm,Calm,,,,Unknown Precipitation,,2013-01-12 12:00:00
6:00 AM,-0.4,-9.4,66,29.90,0.8,North,25.3,34.5,N/A,Snow,Light Snow,350,2013-01-12 12:00:00
7:00 AM,-2.2,-9.4,71,29.94,0.8,NNW,23.0,32.2,N/A,Snow,Light Snow,340,2013-01-12 13:00:00
7:17 AM,-2.2,-9999,N/A,-9999,1.2,North,27.6,-,N/A,Snow,Light Snow,350,2013-01-12 13:17:00
8:00 AM,-2.2,-9.4,71,29.97,1.2,North,27.6,-,N/A,Snow,Light Snow,350,2013-01-12 14:00:00
9:00 AM,-2.2,-9.4,71,30.01,1.8,NNW,25.3,32.2,N/A,Snow,Light Snow,340,2013-01-12 15:00:00
9:13 AM,-4.0,-9999,N/A,-9999,2.0,NNW,25.3,31.1,N/A,Snow,Blowing Snow,340,2013-01-12 15:13:00
9:42 AM,-4.0,-9999,N/A,-9999,3.0,North,25.3,31.1,N/A,Snow,Blowing Snow,350,2013-01-12 15:42:00
10:00 AM,-4.0,-11.2,71,30.04,6.0,North,23.0,-,N/A,Snow,Blowing Snow,350,2013-01-12 16:00:00
11:00 AM,-5.8,-11.2,77,30.06,8.0,NNW,19.6,26.5,N/A,Snow,Low Drifting Snow,330,2013-01-12 17:00:00
12:00 PM,-5,-11,63,30.07,7,Calm,Calm,,,,,,2013-01-12 18:00:00
12:00 PM,-4.0,-11.2,71,30.07,10.0,NNW,19.6,-,N/A,Snow,Low Drifting Snow,340,2013-01-12 18:00:00
1:00 PM,-4.0,-9.4,78,30.09,15.0,NW,18.4,-,N/A,Snow,Low Drifting Snow,320,2013-01-12 19:00:00
2:00 PM,-4.0,-9.4,78,30.12,15.0,NNW,18.4,-,N/A,Snow,Low Drifting Snow,330,2013-01-12 20:00:00
3:00 PM,-2.2,-9.4,71,30.14,15.0,NW,18.4,-,N/A,Snow,Low Drifting Snow,320,2013-01-12 21:00:00
4:00 PM,-5.8,-13.0,71,30.17,15.0,NW,17.3,-,N/A,Snow,Low Drifting Snow,320,2013-01-12 22:00:00
5:00 PM,-7.6,-16.6,65,30.18,15.0,NW,11.5,-,N/A,,Scattered Clouds,310,2013-01-12 23:00:00
6:00 PM,-8,-16,55,30.21,9,Calm,Calm,,,,,,2013-01-13 00:00:00
6:00 PM,-7.6,-14.8,71,30.21,15.0,NW,12.7,-,N/A,,Overcast,310,2013-01-13 00:00:00
7:00 PM,-9.4,-16.6,71,30.22,15.0,NW,11.5,-,N/A,,Mostly Cloudy,310,2013-01-13 01:00:00
8:00 PM,-11.2,-18.4,70,30.23,15.0,NNW,9.2,-,N/A,,Clear,330,2013-01-13 02:00:00
9:00 PM,-14.8,-22.0,70,30.24,15.0,NW,6.9,-,N/A,,Clear,310,2013-01-13 03:00:00
10:00 PM,-13.0,-22.0,64,30.23,15.0,WNW,4.6,-,N/A,,Clear,300,2013-01-13 04:00:00
11:00 PM,-13.0,-20.2,70,30.24,15.0,West,4.6,-,N/A,,Clear,270,2013-01-13 05:00:00